Bissett, Canada
Current Conditions -  °F | °C
As of 4:00 PM on Monday 20 Oct 2014 (Local Time) from CYRL Reporting Station
Overcast Overcast  
Wind Chill: 37°   Ceiling: 1500
Heat Index: 41°   Visibility: 15mi
Dew Point: 34°   Wind: 6mph
Humidity: 76%   Direction: 10°N
Pressure: 30.08"   Gusts: NA
Location:  51.02°N, 95.67°W
Report Text: CYRL 202100Z 01005KT 350V070 15SM OVC015 05/01 A3008 RMK SC8 SLP203
Loading
Personal Weather Stations






























Interactive Weather Map
Tropical Storm Tracking
New forecast layout! Learn more

10-Day Weather Forecast

Advertisements
Track Severe Weather on mobile